Genco Auvergne — V7ES3 — position and weather

sailwx.info

Track history (hours):
 
Tides and Currents Weather Stations Pressure Air Temp Water Temp Dewpoint Dewpoint Depression Visibility Wind Speed Wind Dir Waves Ship Positions

Genco Auvergne

Last reported at 2014-Nov-24 07:32 UTC. Time now 2014-Nov-24 09:18 UTC.
Position N 38°57' E 118°02'.

Length 190 m; draft 9.5 m.

Type: Cargo ship. MMSI: 538002570.

Date/timePositionNaut miles runAvg speedWind from/ knotsBaromVisibWave heightAir tempDewpointWater temp
2014-Nov-24 07:32N 38°57' E 118°02'0 0.0
2014-Nov-24 04:20N 38°57' E 118°02'0 0.0
2014-Nov-24 03:32N 38°57' E 118°02'0 0.0
2014-Nov-23 23:14N 38°57' E 118°02'0 0.0
2014-Nov-23 22:08N 38°57' E 118°02'0 0.1
2014-Nov-23 18:20N 38°57' E 118°02'0 0.1
2014-Nov-23 14:26N 38°57' E 118°02'0 0.0
2014-Nov-23 08:32N 38°57' E 118°02'0 0.0
2014-Nov-23 07:32N 38°57' E 118°02'0 0.0
2014-Nov-23 02:14N 38°57' E 118°02'0 0.0
2014-Nov-23 01:32N 38°57' E 118°02'0 0.0
2014-Nov-22 23:08N 38°57' E 118°02'0 0.0
2014-Nov-22 22:08N 38°57' E 118°02'0 0.1
2014-Nov-22 20:26N 38°57' E 118°02'0 0.0
2014-Nov-22 18:08N 38°57' E 118°02'0 0.0
2014-Nov-22 17:20N 38°57' E 118°02'0 0.0
2014-Nov-22 16:32N 38°57' E 118°02'0 0.0
2014-Nov-22 15:20N 38°57' E 118°02'0 0.0
2014-Nov-22 14:20N 38°57' E 118°02'0 0.1
2014-Nov-22 13:32N 38°57' E 118°02'0 0.1
2014-Nov-22 12:26N 38°57' E 118°02'0 0.0
2014-Nov-22 09:26N 38°57' E 118°02'0 0.0
2014-Nov-22 04:14N 38°57' E 118°02'0 0.1
2014-Nov-22 03:20N 38°57' E 118°02'0 0.0
2014-Nov-22 02:32N 38°57' E 118°02'0 0.1
2014-Nov-22 00:13N 38°57' E 118°02'0 0.1
2014-Nov-21 23:31N 38°57' E 118°02'0 0.0
2014-Nov-21 15:31N 38°57' E 118°02'0 0.0
2014-Nov-21 14:19N 38°57' E 118°02'0 0.1
2014-Nov-21 12:25N 38°57' E 118°02'0 0.0
2014-Nov-21 11:07N 38°57' E 118°02'0 0.0
2014-Nov-21 08:13N 38°57' E 118°02'0 0.1
2014-Nov-21 07:26N 38°57' E 118°02'0 0.0
2014-Nov-21 06:31N 38°57' E 118°02'0 0.1
2014-Nov-21 05:07N 38°57' E 118°02'0 0.0
2014-Nov-21 04:31N 38°57' E 118°02'0 0.0
2014-Nov-21 02:31N 38°57' E 118°02'0 0.0
2014-Nov-21 01:13N 38°57' E 118°02'0 0.2
2014-Nov-21 00:31N 38°57' E 118°02'0 0.0
2014-Nov-20 23:19N 38°57' E 118°02'0 0.0
2014-Nov-20 22:07N 38°57' E 118°02'0 0.0
2014-Nov-20 20:13N 38°57' E 118°02'0 0.1
2014-Nov-20 19:13N 38°57' E 118°02'0 0.1
2014-Nov-20 18:25N 38°57' E 118°02'0 0.0
2014-Nov-20 14:19N 38°57' E 118°02'0 0.0
2014-Nov-20 13:14N 38°57' E 118°02'0 0.2
2014-Nov-20 12:13N 38°57' E 118°02'0 0.1
2014-Nov-20 11:19N 38°57' E 118°02'0 0.1
2014-Nov-20 10:27N 38°57' E 118°02'19211.4
2014-Nov-19 17:31N 38°02' E 121°58'1312.5
2014-Nov-19 16:30N 37°55' E 122°11'1412.2
2014-Nov-19 15:21N 37°46' E 122°25'1012.0
2014-Nov-19 14:33N 37°40' E 122°35'2511.0
2014-Nov-19 12:17N 37°20' E 122°53'912.1
2014-Nov-19 11:32N 37°11' E 122°53'1212.4
2014-Nov-19 10:33N 36°59' E 122°53'1312.9
2014-Nov-19 09:33N 36°46' E 122°53'34112.2
2014-Nov-18 05:33N 31°06' E 122°25'9 8.6
2014-Nov-18 04:33N 31°08' E 122°16'1212.1
2014-Nov-18 03:33N 31°14' E 122°04'1110.6
2014-Nov-18 02:33N 31°16' E 121°51'4 3.5
2014-Nov-18 01:32N 31°17' E 121°48'0 0.0
2014-Nov-18 00:32N 31°17' E 121°48'0 0.1
2014-Nov-17 23:32N 31°17' E 121°48'0 0.1
2014-Nov-17 22:29N 31°17' E 121°48'0 0.2
2014-Nov-17 21:32N 31°17' E 121°48'0 0.0
2014-Nov-17 20:32N 31°17' E 121°48'0 0.0
2014-Nov-17 19:32N 31°17' E 121°48'0 0.4
2014-Nov-17 18:33N 31°17' E 121°47'1211.6
2014-Nov-17 17:33N 31°23' E 121°35'9 9.5
2014-Nov-17 16:34N 31°29' E 121°27'1212.3
2014-Nov-17 15:33N 31°37' E 121°16'1212.3
2014-Nov-17 14:34N 31°45' E 121°05'1110.9
2014-Nov-17 13:33N 31°51' E 120°54'1211.9
2014-Nov-17 12:33N 32°01' E 120°47'8 7.2
2014-Nov-17 11:26N 31°59' E 120°37'0 0.0
2014-Nov-17 10:29N 31°59' E 120°37'0 0.0
2014-Nov-17 09:32N 31°59' E 120°37'0 0.0
2014-Nov-17 08:29N 31°59' E 120°37'0 0.0
2014-Nov-17 07:32N 31°59' E 120°37'0 0.0
2014-Nov-17 06:31N 31°59' E 120°37'0 0.0
2014-Nov-17 05:32N 31°59' E 120°37'0 0.0
2014-Nov-17 04:29N 31°59' E 120°37'0 0.0
2014-Nov-17 03:28N 31°59' E 120°37'0 0.0
2014-Nov-17 02:29N 31°59' E 120°37'0 0.0
2014-Nov-17 01:31N 31°59' E 120°37'0 0.0
2014-Nov-17 00:32N 31°59' E 120°37'0 0.0
2014-Nov-16 23:31N 31°59' E 120°37'0 0.0
2014-Nov-16 22:31N 31°59' E 120°37'0 0.0
2014-Nov-16 21:29N 31°59' E 120°37'0 0.0
2014-Nov-16 20:31N 31°59' E 120°37'0 0.0
2014-Nov-16 19:29N 31°59' E 120°37'0 0.0
2014-Nov-16 18:31N 31°59' E 120°37'0 0.0
2014-Nov-16 17:31N 31°59' E 120°37'0 0.0
2014-Nov-16 16:29N 31°59' E 120°37'0 0.0
2014-Nov-16 15:23N 31°59' E 120°37'0 0.0
2014-Nov-16 14:28N 31°59' E 120°37'0 0.0
2014-Nov-16 13:31N 31°59' E 120°37'0 0.0
2014-Nov-16 12:31N 31°59' E 120°37'0 0.0
2014-Nov-16 11:31N 31°59' E 120°37'0 0.0
2014-Nov-16 10:28N 31°59' E 120°37'0 0.0
2014-Nov-16 09:28N 31°59' E 120°37'0 0.0
2014-Nov-16 08:31N 31°59' E 120°37'0 0.0
2014-Nov-16 07:29N 31°59' E 120°37'0 0.0
2014-Nov-16 06:29N 31°59' E 120°37'0 0.0
2014-Nov-16 05:29N 31°59' E 120°37'0 0.0
2014-Nov-16 04:28N 31°59' E 120°37'0 0.0
2014-Nov-16 03:28N 31°59' E 120°37'0 0.0
2014-Nov-16 02:31N 31°59' E 120°37'0 0.0
2014-Nov-16 01:31N 31°59' E 120°37'0 0.0
2014-Nov-16 00:31N 31°59' E 120°37'0 0.0
2014-Nov-15 23:31N 31°59' E 120°37'0 0.0
2014-Nov-15 22:31N 31°59' E 120°37'0 0.0
2014-Nov-15 21:31N 31°59' E 120°37'0 0.0
2014-Nov-15 20:31N 31°59' E 120°37'0 0.0
2014-Nov-15 19:31N 31°59' E 120°37'0 0.0
2014-Nov-15 18:29N 31°59' E 120°37'0 0.0
2014-Nov-15 17:31N 31°59' E 120°37'0 0.0
2014-Nov-15 16:31N 31°59' E 120°37'0 0.0
2014-Nov-15 15:22N 31°59' E 120°37'0 0.0
2014-Nov-15 14:28N 31°59' E 120°37'0 0.0
2014-Nov-15 13:31N 31°59' E 120°37'0 0.0
2014-Nov-15 12:28N 31°59' E 120°37'0 0.0
2014-Nov-15 11:31N 31°59' E 120°37'0 0.0
2014-Nov-15 10:28N 31°59' E 120°37'0 0.0
2014-Nov-15 09:31N 31°59' E 120°37'0 0.0
2014-Nov-15 08:31N 31°59' E 120°37'0 0.0
2014-Nov-15 07:31N 31°59' E 120°37'0 0.0
2014-Nov-15 06:31N 31°59' E 120°37'0 0.0
2014-Nov-15 05:31N 31°59' E 120°37'0 0.0
2014-Nov-15 04:28N 31°59' E 120°37'0 0.0
2014-Nov-15 03:31N 31°59' E 120°37'0 0.0
2014-Nov-15 02:28N 31°59' E 120°37'0 0.0
2014-Nov-15 01:31N 31°59' E 120°37'0 0.0
2014-Nov-15 00:31N 31°59' E 120°37'0 0.0
2014-Nov-14 23:28N 31°59' E 120°37'0 0.0
2014-Nov-14 22:31N 31°59' E 120°37'0 0.0
2014-Nov-14 21:31N 31°59' E 120°37'0 0.0
2014-Nov-14 20:31N 31°59' E 120°37'0 0.0
2014-Nov-14 19:31N 31°59' E 120°37'0 0.0
2014-Nov-14 18:25N 31°59' E 120°37'0 0.0
2014-Nov-14 17:31N 31°59' E 120°37'0 0.0
2014-Nov-14 16:31N 31°59' E 120°37'0 0.0
2014-Nov-14 15:29N 31°59' E 120°37'0 0.0
2014-Nov-14 14:29N 31°59' E 120°37'0 0.0
2014-Nov-14 12:29N 31°59' E 120°37'0 0.0
2014-Nov-14 11:31N 31°59' E 120°37'0 0.0
2014-Nov-14 10:31N 31°59' E 120°37'0 0.0
2014-Nov-14 09:31N 31°59' E 120°37'0 0.0
2014-Nov-14 08:31N 31°59' E 120°37'  
Track history (hours):
 
Tides and Currents Weather Stations Pressure Air Temp Water Temp Dewpoint Dewpoint Depression Visibility Wind Speed Wind Dir Waves Ship Positions

Genco Auvergne

Last reported at 2014-Nov-24 07:32 UTC. Time now 2014-Nov-24 09:18 UTC.
Position N 38°57' E 118°02'.

Length 190 m; draft 9.5 m.

Type: Cargo ship. MMSI: 538002570.

Date/timePositionNaut miles runAvg speedWind from/ knotsBaromVisibWave heightAir tempDewpointWater temp
2014-Nov-24 07:32N 38°57' E 118°02'0 0.0
2014-Nov-24 04:20N 38°57' E 118°02'0 0.0
2014-Nov-24 03:32N 38°57' E 118°02'0 0.0
2014-Nov-23 23:14N 38°57' E 118°02'0 0.0
2014-Nov-23 22:08N 38°57' E 118°02'0 0.1
2014-Nov-23 18:20N 38°57' E 118°02'0 0.1
2014-Nov-23 14:26N 38°57' E 118°02'0 0.0
2014-Nov-23 08:32N 38°57' E 118°02'0 0.0
2014-Nov-23 07:32N 38°57' E 118°02'0 0.0
2014-Nov-23 02:14N 38°57' E 118°02'0 0.0
2014-Nov-23 01:32N 38°57' E 118°02'0 0.0
2014-Nov-22 23:08N 38°57' E 118°02'0 0.0
2014-Nov-22 22:08N 38°57' E 118°02'0 0.1
2014-Nov-22 20:26N 38°57' E 118°02'0 0.0
2014-Nov-22 18:08N 38°57' E 118°02'0 0.0
2014-Nov-22 17:20N 38°57' E 118°02'0 0.0
2014-Nov-22 16:32N 38°57' E 118°02'0 0.0
2014-Nov-22 15:20N 38°57' E 118°02'0 0.0
2014-Nov-22 14:20N 38°57' E 118°02'0 0.1
2014-Nov-22 13:32N 38°57' E 118°02'0 0.1
2014-Nov-22 12:26N 38°57' E 118°02'0 0.0
2014-Nov-22 09:26N 38°57' E 118°02'0 0.0
2014-Nov-22 04:14N 38°57' E 118°02'0 0.1
2014-Nov-22 03:20N 38°57' E 118°02'0 0.0
2014-Nov-22 02:32N 38°57' E 118°02'0 0.1
2014-Nov-22 00:13N 38°57' E 118°02'0 0.1
2014-Nov-21 23:31N 38°57' E 118°02'0 0.0
2014-Nov-21 15:31N 38°57' E 118°02'0 0.0
2014-Nov-21 14:19N 38°57' E 118°02'0 0.1
2014-Nov-21 12:25N 38°57' E 118°02'0 0.0
2014-Nov-21 11:07N 38°57' E 118°02'0 0.0
2014-Nov-21 08:13N 38°57' E 118°02'0 0.1
2014-Nov-21 07:26N 38°57' E 118°02'0 0.0
2014-Nov-21 06:31N 38°57' E 118°02'0 0.1
2014-Nov-21 05:07N 38°57' E 118°02'0 0.0
2014-Nov-21 04:31N 38°57' E 118°02'0 0.0
2014-Nov-21 02:31N 38°57' E 118°02'0 0.0
2014-Nov-21 01:13N 38°57' E 118°02'0 0.2
2014-Nov-21 00:31N 38°57' E 118°02'0 0.0
2014-Nov-20 23:19N 38°57' E 118°02'0 0.0
2014-Nov-20 22:07N 38°57' E 118°02'0 0.0
2014-Nov-20 20:13N 38°57' E 118°02'0 0.1
2014-Nov-20 19:13N 38°57' E 118°02'0 0.1
2014-Nov-20 18:25N 38°57' E 118°02'0 0.0
2014-Nov-20 14:19N 38°57' E 118°02'0 0.0
2014-Nov-20 13:14N 38°57' E 118°02'0 0.2
2014-Nov-20 12:13N 38°57' E 118°02'0 0.1
2014-Nov-20 11:19N 38°57' E 118°02'0 0.1
2014-Nov-20 10:27N 38°57' E 118°02'19211.4
2014-Nov-19 17:31N 38°02' E 121°58'1312.5
2014-Nov-19 16:30N 37°55' E 122°11'1412.2
2014-Nov-19 15:21N 37°46' E 122°25'1012.0
2014-Nov-19 14:33N 37°40' E 122°35'2511.0
2014-Nov-19 12:17N 37°20' E 122°53'912.1
2014-Nov-19 11:32N 37°11' E 122°53'1212.4
2014-Nov-19 10:33N 36°59' E 122°53'1312.9
2014-Nov-19 09:33N 36°46' E 122°53'34112.2
2014-Nov-18 05:33N 31°06' E 122°25'9 8.6
2014-Nov-18 04:33N 31°08' E 122°16'1212.1
2014-Nov-18 03:33N 31°14' E 122°04'1110.6
2014-Nov-18 02:33N 31°16' E 121°51'4 3.5
2014-Nov-18 01:32N 31°17' E 121°48'0 0.0
2014-Nov-18 00:32N 31°17' E 121°48'0 0.1
2014-Nov-17 23:32N 31°17' E 121°48'0 0.1
2014-Nov-17 22:29N 31°17' E 121°48'0 0.2
2014-Nov-17 21:32N 31°17' E 121°48'0 0.0
2014-Nov-17 20:32N 31°17' E 121°48'0 0.0
2014-Nov-17 19:32N 31°17' E 121°48'0 0.4
2014-Nov-17 18:33N 31°17' E 121°47'1211.6
2014-Nov-17 17:33N 31°23' E 121°35'9 9.5
2014-Nov-17 16:34N 31°29' E 121°27'1212.3
2014-Nov-17 15:33N 31°37' E 121°16'1212.3
2014-Nov-17 14:34N 31°45' E 121°05'1110.9
2014-Nov-17 13:33N 31°51' E 120°54'1211.9
2014-Nov-17 12:33N 32°01' E 120°47'8 7.2
2014-Nov-17 11:26N 31°59' E 120°37'0 0.0
2014-Nov-17 10:29N 31°59' E 120°37'0 0.0
2014-Nov-17 09:32N 31°59' E 120°37'0 0.0
2014-Nov-17 08:29N 31°59' E 120°37'0 0.0
2014-Nov-17 07:32N 31°59' E 120°37'0 0.0
2014-Nov-17 06:31N 31°59' E 120°37'0 0.0
2014-Nov-17 05:32N 31°59' E 120°37'0 0.0
2014-Nov-17 04:29N 31°59' E 120°37'0 0.0
2014-Nov-17 03:28N 31°59' E 120°37'0 0.0
2014-Nov-17 02:29N 31°59' E 120°37'0 0.0
2014-Nov-17 01:31N 31°59' E 120°37'0 0.0
2014-Nov-17 00:32N 31°59' E 120°37'0 0.0
2014-Nov-16 23:31N 31°59' E 120°37'0 0.0
2014-Nov-16 22:31N 31°59' E 120°37'0 0.0
2014-Nov-16 21:29N 31°59' E 120°37'0 0.0
2014-Nov-16 20:31N 31°59' E 120°37'0 0.0
2014-Nov-16 19:29N 31°59' E 120°37'0 0.0
2014-Nov-16 18:31N 31°59' E 120°37'0 0.0
2014-Nov-16 17:31N 31°59' E 120°37'0 0.0
2014-Nov-16 16:29N 31°59' E 120°37'0 0.0
2014-Nov-16 15:23N 31°59' E 120°37'0 0.0
2014-Nov-16 14:28N 31°59' E 120°37'0 0.0
2014-Nov-16 13:31N 31°59' E 120°37'0 0.0
2014-Nov-16 12:31N 31°59' E 120°37'0 0.0
2014-Nov-16 11:31N 31°59' E 120°37'0 0.0
2014-Nov-16 10:28N 31°59' E 120°37'0 0.0
2014-Nov-16 09:28N 31°59' E 120°37'0 0.0
2014-Nov-16 08:31N 31°59' E 120°37'0 0.0
2014-Nov-16 07:29N 31°59' E 120°37'0 0.0
2014-Nov-16 06:29N 31°59' E 120°37'0 0.0
2014-Nov-16 05:29N 31°59' E 120°37'0 0.0
2014-Nov-16 04:28N 31°59' E 120°37'0 0.0
2014-Nov-16 03:28N 31°59' E 120°37'0 0.0
2014-Nov-16 02:31N 31°59' E 120°37'0 0.0
2014-Nov-16 01:31N 31°59' E 120°37'0 0.0
2014-Nov-16 00:31N 31°59' E 120°37'0 0.0
2014-Nov-15 23:31N 31°59' E 120°37'0 0.0
2014-Nov-15 22:31N 31°59' E 120°37'0 0.0
2014-Nov-15 21:31N 31°59' E 120°37'0 0.0
2014-Nov-15 20:31N 31°59' E 120°37'0 0.0
2014-Nov-15 19:31N 31°59' E 120°37'0 0.0
2014-Nov-15 18:29N 31°59' E 120°37'0 0.0
2014-Nov-15 17:31N 31°59' E 120°37'0 0.0
2014-Nov-15 16:31N 31°59' E 120°37'0 0.0
2014-Nov-15 15:22N 31°59' E 120°37'0 0.0
2014-Nov-15 14:28N 31°59' E 120°37'0 0.0
2014-Nov-15 13:31N 31°59' E 120°37'0 0.0
2014-Nov-15 12:28N 31°59' E 120°37'0 0.0
2014-Nov-15 11:31N 31°59' E 120°37'0 0.0
2014-Nov-15 10:28N 31°59' E 120°37'0 0.0
2014-Nov-15 09:31N 31°59' E 120°37'0 0.0
2014-Nov-15 08:31N 31°59' E 120°37'0 0.0
2014-Nov-15 07:31N 31°59' E 120°37'0 0.0
2014-Nov-15 06:31N 31°59' E 120°37'0 0.0
2014-Nov-15 05:31N 31°59' E 120°37'0 0.0
2014-Nov-15 04:28N 31°59' E 120°37'0 0.0
2014-Nov-15 03:31N 31°59' E 120°37'0 0.0
2014-Nov-15 02:28N 31°59' E 120°37'0 0.0
2014-Nov-15 01:31N 31°59' E 120°37'0 0.0
2014-Nov-15 00:31N 31°59' E 120°37'0 0.0
2014-Nov-14 23:28N 31°59' E 120°37'0 0.0
2014-Nov-14 22:31N 31°59' E 120°37'0 0.0
2014-Nov-14 21:31N 31°59' E 120°37'0 0.0
2014-Nov-14 20:31N 31°59' E 120°37'0 0.0
2014-Nov-14 19:31N 31°59' E 120°37'0 0.0
2014-Nov-14 18:25N 31°59' E 120°37'0 0.0
2014-Nov-14 17:31N 31°59' E 120°37'0 0.0
2014-Nov-14 16:31N 31°59' E 120°37'0 0.0
2014-Nov-14 15:29N 31°59' E 120°37'0 0.0
2014-Nov-14 14:29N 31°59' E 120°37'0 0.0
2014-Nov-14 12:29N 31°59' E 120°37'0 0.0
2014-Nov-14 11:31N 31°59' E 120°37'0 0.0
2014-Nov-14 10:31N 31°59' E 120°37'0 0.0
2014-Nov-14 09:31N 31°59' E 120°37'0 0.0
2014-Nov-14 08:31N 31°59' E 120°37'  

Dump ship's entire track history